Time;durP1;ratioP1;P1;durP2;ratioP2;P2;SDS_P1;SDS_P2;PMS_P1;PMS_P2;Temp;Humidity;BMP_temperature;BMP_pressure;BME280_temperature;BME280_humidity;BME280_pressure;Samples;Min_cycle;Max_cycle;Signal;HPM_P1;HPM_P2
2021/03/12 00:00:08;;;;;;;11.82;2.40;;;;;;;6.10;63.30;98522.91;4989754;28;20026;-70
2021/03/12 00:02:33;;;;;;;7.47;2.53;;;;;;;6.10;63.34;98539.44;4987860;28;20097;-68
2021/03/12 00:04:58;;;;;;;6.78;2.85;;;;;;;6.12;63.62;98521.91;4990634;28;20034;-69
2021/03/12 00:07:23;;;;;;;6.13;3.00;;;;;;;6.14;63.92;98537.53;4988812;28;20457;-69
2021/03/12 00:09:49;;;;;;;7.53;2.55;;;;;;;6.12;63.46;98548.06;4972255;28;20103;-69
2021/03/12 00:12:14;;;;;;;5.38;2.28;;;;;;;6.11;62.38;98543.78;4986547;28;20497;-68
2021/03/12 00:14:39;;;;;;;11.18;2.63;;;;;;;6.11;62.92;98549.00;4990342;28;20034;-69
2021/03/12 00:17:06;;;;;;;7.30;2.95;;;;;;;6.14;63.23;98551.47;4972648;28;20033;-71
2021/03/12 00:19:31;;;;;;;8.70;2.40;;;;;;;6.12;62.40;98558.53;4972967;28;20093;-71
2021/03/12 00:21:56;;;;;;;9.23;2.90;;;;;;;6.14;61.28;98559.31;4990156;28;20031;-70
2021/03/12 00:24:23;;;;;;;9.50;2.78;;;;;;;6.16;61.63;98573.16;4990222;28;20096;-70
2021/03/12 00:26:48;;;;;;;14.82;3.53;;;;;;;6.15;62.61;98589.81;4990275;28;20038;-71
2021/03/12 00:29:13;;;;;;;7.80;2.88;;;;;;;6.14;62.59;98577.63;4990575;28;20563;-69
2021/03/12 00:31:39;;;;;;;6.38;3.20;;;;;;;6.11;63.26;98593.47;4990117;28;20157;-70
2021/03/12 00:34:04;;;;;;;10.57;5.07;;;;;;;6.08;64.46;98575.34;4990144;28;20058;-68
2021/03/12 00:36:29;;;;;;;13.75;3.03;;;;;;;5.99;65.69;98608.00;4989659;28;20046;-69
2021/03/12 00:38:55;;;;;;;8.63;3.63;;;;;;;5.90;65.97;98603.19;4972594;28;20215;-69
2021/03/12 00:41:20;;;;;;;10.23;3.25;;;;;;;5.88;65.99;98606.81;4989556;28;20397;-68
2021/03/12 00:43:45;;;;;;;8.15;2.95;;;;;;;5.88;66.18;98617.28;4990246;28;20026;-69
2021/03/12 00:46:11;;;;;;;13.40;4.68;;;;;;;5.88;66.97;98625.13;4971902;28;20097;-69
2021/03/12 00:48:38;;;;;;;14.90;5.05;;;;;;;5.82;67.14;98614.03;4972030;28;20052;-68
2021/03/12 00:51:05;;;;;;;6.95;3.30;;;;;;;5.76;67.21;98624.81;4989933;28;20039;-71
2021/03/12 00:53:30;;;;;;;17.52;3.72;;;;;;;5.66;67.66;98631.41;4989629;28;20038;-68
2021/03/12 00:55:55;;;;;;;9.85;3.67;;;;;;;5.50;70.26;98636.50;4989594;28;20034;-70
2021/03/12 00:58:23;;;;;;;9.77;4.07;;;;;;;5.36;72.05;98654.59;4990041;28;20133;-70
2021/03/12 01:00:48;;;;;;;9.25;4.38;;;;;;;5.29;72.82;98664.50;4990086;28;20045;-70
2021/03/12 01:03:13;;;;;;;14.45;5.03;;;;;;;5.22;73.47;98683.09;4990841;28;20035;-68
2021/03/12 01:05:39;;;;;;;12.02;4.00;;;;;;;5.10;75.01;98663.63;4981661;28;20054;-68
2021/03/12 01:08:05;;;;;;;19.40;4.82;;;;;;;5.06;74.84;98664.69;4989214;28;20042;-68
2021/03/12 01:10:30;;;;;;;10.00;3.63;;;;;;;5.04;75.13;98679.56;4993204;28;20038;-69
2021/03/12 01:12:56;;;;;;;16.83;7.22;;;;;;;5.04;75.69;98682.19;4994048;28;20061;-68
2021/03/12 01:15:25;;;;;;;15.95;4.45;;;;;;;5.03;75.19;98686.56;4975424;28;20052;-69
2021/03/12 01:17:51;;;;;;;15.02;3.83;;;;;;;5.01;74.63;98682.31;4972672;28;20027;-72
2021/03/12 01:20:22;;;;;;;13.18;4.50;;;;;;;4.97;74.24;98672.91;4972456;28;20065;-69
2021/03/12 01:22:48;;;;;;;13.05;4.05;;;;;;;4.89;75.14;98681.09;4986674;28;20491;-69
2021/03/12 01:25:18;;;;;;;15.07;4.03;;;;;;;4.88;74.67;98682.84;4989700;28;20125;-69
2021/03/12 01:27:44;;;;;;;12.13;4.53;;;;;;;4.88;75.02;98682.84;4970030;28;20398;-70
2021/03/12 01:30:32;;;;;;;17.95;4.45;;;;;;;4.91;74.18;98692.31;4978733;28;20042;-71
2021/03/12 01:32:57;;;;;;;23.23;6.85;;;;;;;4.96;73.44;98672.06;4988965;28;20041;-70
2021/03/12 01:35:23;;;;;;;13.90;5.00;;;;;;;5.01;72.22;98677.94;4955904;28;20035;-71
2021/03/12 01:37:48;;;;;;;26.13;5.22;;;;;;;5.06;72.70;98680.34;4970344;28;20070;-70
2021/03/12 01:40:17;;;;;;;19.58;6.03;;;;;;;5.08;72.05;98671.53;4969858;28;20035;-71
2021/03/12 01:42:43;;;;;;;25.17;6.82;;;;;;;5.17;71.89;98680.72;4969980;28;20057;-71
2021/03/12 01:45:11;;;;;;;12.80;4.60;;;;;;;5.19;71.83;98688.47;4969916;28;20066;-71
2021/03/12 01:47:37;;;;;;;17.38;3.95;;;;;;;5.19;71.28;98688.47;4969244;28;20659;-70
2021/03/12 01:50:04;;;;;;;17.75;4.18;;;;;;;5.23;70.79;98697.88;4969220;28;20041;-70
2021/03/12 01:52:30;;;;;;;18.38;4.07;;;;;;;5.23;70.60;98690.88;4969957;28;20494;-70
2021/03/12 01:54:55;;;;;;;19.88;4.95;;;;;;;5.24;70.39;98699.56;4969662;28;20041;-70
2021/03/12 01:57:21;;;;;;;12.63;4.72;;;;;;;5.26;70.17;98703.81;4952196;28;20039;-70
2021/03/12 01:59:46;;;;;;;14.30;4.88;;;;;;;5.32;70.21;98700.94;4969997;28;20379;-70
2021/03/12 02:02:11;;;;;;;9.35;4.38;;;;;;;5.35;69.68;98699.94;4959110;28;20123;-70
2021/03/12 02:04:37;;;;;;;16.88;3.83;;;;;;;5.36;69.25;98696.41;4972622;28;20047;-70
2021/03/12 02:07:02;;;;;;;21.98;4.70;;;;;;;5.35;69.84;98705.19;4975399;28;20038;-70
2021/03/12 02:09:28;;;;;;;12.32;4.30;;;;;;;5.36;68.55;98701.63;4973019;28;20043;-71
2021/03/12 02:12:22;;;;;;;14.80;4.05;;;;;;;5.37;69.07;98706.81;4973089;28;20502;-70
2021/03/12 02:15:08;;;;;;;9.13;3.25;;;;;;;5.44;66.99;98704.75;4963181;28;20450;-70
2021/03/12 02:17:44;;;;;;;17.02;5.30;;;;;;;5.48;67.24;98708.91;4955135;28;20039;-70
2021/03/12 02:20:24;;;;;;;14.25;5.65;;;;;;;5.47;67.06;98709.84;4958251;28;20041;-70
2021/03/12 02:23:02;;;;;;;17.35;3.70;;;;;;;5.48;68.09;98714.13;4973235;28;20118;-70
2021/03/12 02:25:28;;;;;;;9.82;3.53;;;;;;;5.50;66.58;98711.47;4972499;28;20057;-72
2021/03/12 02:27:55;;;;;;;15.90;4.38;;;;;;;5.52;66.57;98709.63;4972730;28;20097;-70
2021/03/12 02:30:20;;;;;;;14.13;3.58;;;;;;;5.53;67.35;98717.38;4973521;28;20415;-69
2021/03/12 02:32:49;;;;;;;9.07;3.75;;;;;;;5.56;66.63;98708.56;4972682;28;20051;-70
2021/03/12 02:35:17;;;;;;;15.10;3.97;;;;;;;5.55;67.40;98723.41;4954938;28;20073;-69
2021/03/12 02:37:44;;;;;;;11.40;3.33;;;;;;;5.56;66.93;98711.16;4954957;28;20055;-69
2021/03/12 02:40:11;;;;;;;16.85;5.13;;;;;;;5.59;67.01;98724.97;4972073;28;20486;-70
2021/03/12 02:42:39;;;;;;;15.55;5.68;;;;;;;5.58;66.81;98727.63;4965251;28;20101;-68
2021/03/12 02:45:07;;;;;;;16.17;4.43;;;;;;;5.59;66.65;98713.66;4990950;28;20084;-69
2021/03/12 02:47:32;;;;;;;12.07;4.03;;;;;;;5.59;66.26;98731.97;4982984;28;20030;-69
2021/03/12 02:49:59;;;;;;;12.88;3.70;;;;;;;5.58;66.80;98725.03;4958592;28;20732;-69
2021/03/12 02:52:25;;;;;;;17.60;4.03;;;;;;;5.54;67.04;98719.09;4992704;28;20030;-69
2021/03/12 02:54:51;;;;;;;16.77;3.72;;;;;;;5.52;66.62;98723.53;4974944;28;20114;-69
2021/03/12 02:57:18;;;;;;;12.18;3.42;;;;;;;5.47;67.15;98725.53;4991491;28;20026;-68
2021/03/12 02:59:45;;;;;;;8.30;4.25;;;;;;;5.44;67.04;98723.06;4974194;28;20031;-69
2021/03/12 03:02:11;;;;;;;9.13;3.58;;;;;;;5.42;66.73;98732.72;4991193;28;20038;-69
2021/03/12 03:04:41;;;;;;;21.88;4.38;;;;;;;5.37;67.48;98712.03;4974045;28;20048;-69
2021/03/12 03:07:08;;;;;;;15.23;3.67;;;;;;;5.37;67.53;98721.63;4991405;28;20046;-70
2021/03/12 03:09:36;;;;;;;17.50;3.78;;;;;;;5.35;67.75;98729.53;4991597;28;20035;-70
2021/03/12 03:12:02;;;;;;;14.27;3.85;;;;;;;5.28;68.03;98722.88;4973158;28;20501;-71
2021/03/12 03:14:30;;;;;;;19.40;4.57;;;;;;;5.28;68.32;98727.28;4991042;28;20038;-71
2021/03/12 03:16:59;;;;;;;11.18;5.85;;;;;;;5.27;69.17;98743.88;4991013;28;20045;-71
2021/03/12 03:19:27;;;;;;;12.10;3.40;;;;;;;5.24;69.44;98731.81;4989916;28;20045;-69
2021/03/12 03:21:52;;;;;;;18.55;4.75;;;;;;;5.23;70.60;98752.75;4990994;28;20073;-69
2021/03/12 03:24:18;;;;;;;22.92;6.40;;;;;;;5.25;70.77;98750.94;4981123;28;20483;-70
2021/03/12 03:26:43;;;;;;;14.52;3.97;;;;;;;5.23;70.87;98758.81;4971371;28;20041;-69
2021/03/12 03:29:08;;;;;;;14.10;4.97;;;;;;;5.24;70.63;98757.94;4971594;28;20051;-69
2021/03/12 03:31:34;;;;;;;12.05;4.07;;;;;;;5.25;70.39;98751.78;4971908;28;20115;-71
2021/03/12 03:33:59;;;;;;;13.48;5.13;;;;;;;5.27;69.86;98739.50;4954369;28;20027;-69
2021/03/12 03:36:25;;;;;;;12.75;3.92;;;;;;;5.29;69.03;98752.47;4971507;28;20061;-69
2021/03/12 03:38:50;;;;;;;21.02;5.57;;;;;;;5.30;69.54;98747.19;4971772;28;20038;-69
2021/03/12 03:41:17;;;;;;;11.25;4.38;;;;;;;5.26;68.53;98748.22;4970364;28;20031;-69
2021/03/12 03:43:47;;;;;;;20.48;4.88;;;;;;;5.28;68.36;98751.63;4971351;28;20050;-70
2021/03/12 03:46:14;;;;;;;11.95;3.72;;;;;;;5.32;68.27;98763.66;4954646;28;20058;-69
2021/03/12 03:48:40;;;;;;;12.20;4.45;;;;;;;5.31;68.16;98756.72;4970842;28;20042;-71
2021/03/12 03:51:08;;;;;;;12.73;3.38;;;;;;;5.36;67.82;98766.97;4971171;28;20027;-70
2021/03/12 03:53:35;;;;;;;13.43;4.53;;;;;;;5.39;68.06;98772.06;4972143;28;20023;-69
2021/03/12 03:56:03;;;;;;;15.43;4.55;;;;;;;5.42;67.88;98774.56;4971259;28;20037;-69
2021/03/12 03:58:30;;;;;;;11.15;4.28;;;;;;;5.42;68.54;98764.09;4971268;28;20094;-71
2021/03/12 04:01:01;;;;;;;20.75;4.90;;;;;;;5.43;67.78;98772.78;4966711;28;20552;-69
2021/03/12 04:03:28;;;;;;;10.82;4.05;;;;;;;5.48;67.35;98770.81;4971007;28;20031;-70
2021/03/12 04:05:57;;;;;;;20.13;4.47;;;;;;;5.52;66.63;98769.75;4970956;28;20037;-69
2021/03/12 04:08:24;;;;;;;11.05;4.93;;;;;;;5.55;66.71;98767.84;4970573;28;20042;-71
2021/03/12 04:10:51;;;;;;;13.40;4.10;;;;;;;5.59;66.48;98771.19;4972178;28;20402;-69
2021/03/12 04:13:17;;;;;;;14.77;4.55;;;;;;;5.60;67.08;98778.94;4981717;28;20031;-69
2021/03/12 04:15:42;;;;;;;13.82;3.63;;;;;;;5.61;66.27;98774.56;4976809;28;20038;-69
2021/03/12 04:18:08;;;;;;;15.10;4.40;;;;;;;5.64;67.35;98782.28;4975261;28;20505;-69
2021/03/12 04:20:34;;;;;;;17.20;3.92;;;;;;;5.65;66.36;98780.50;4970760;28;20487;-69
2021/03/12 04:23:00;;;;;;;15.95;5.45;;;;;;;5.66;66.17;98784.81;4970145;28;20057;-70
2021/03/12 04:25:26;;;;;;;12.73;3.55;;;;;;;5.66;65.62;98785.69;4970746;28;20038;-70
2021/03/12 04:27:52;;;;;;;23.73;4.50;;;;;;;5.69;65.80;98790.75;4971516;28;20038;-70
2021/03/12 04:30:18;;;;;;;17.20;3.80;;;;;;;5.65;65.05;98783.97;4952914;28;20039;-69
2021/03/12 04:32:44;;;;;;;19.30;4.68;;;;;;;5.64;65.10;98797.97;4970711;28;20114;-71
2021/03/12 04:35:10;;;;;;;26.00;5.55;;;;;;;5.69;65.04;98789.91;4970494;28;20072;-70
2021/03/12 04:37:36;;;;;;;10.85;3.75;;;;;;;5.71;64.49;98785.44;4969958;28;20484;-70
2021/03/12 04:40:04;;;;;;;14.38;3.97;;;;;;;5.72;65.08;98792.38;4970339;28;20057;-70
2021/03/12 04:42:30;;;;;;;13.40;3.67;;;;;;;5.71;64.79;98790.66;4970590;28;20034;-69
2021/03/12 04:44:56;;;;;;;10.68;3.33;;;;;;;5.70;64.29;98791.59;4970281;28;20041;-70
2021/03/12 04:47:22;;;;;;;20.38;5.20;;;;;;;5.75;64.88;98794.84;4970525;28;20038;-70
2021/03/12 04:49:47;;;;;;;19.08;4.25;;;;;;;5.74;63.85;98796.63;4970265;28;20050;-71
2021/03/12 04:52:14;;;;;;;10.35;3.67;;;;;;;5.75;63.92;98787.00;4970284;28;20086;-70
2021/03/12 04:54:39;;;;;;;22.67;4.85;;;;;;;5.74;63.62;98799.25;4969875;28;20042;-69
2021/03/12 04:57:05;;;;;;;18.13;3.55;;;;;;;5.75;64.08;98800.94;4970277;28;20081;-70
2021/03/12 04:59:32;;;;;;;15.80;3.72;;;;;;;5.76;64.58;98796.56;4970250;28;20109;-70
2021/03/12 05:01:58;;;;;;;16.75;4.30;;;;;;;5.73;63.70;98809.75;4952975;28;20035;-69
2021/03/12 05:04:23;;;;;;;20.02;3.78;;;;;;;5.70;64.15;98810.75;4970715;28;20042;-70
2021/03/12 05:06:49;;;;;;;18.13;5.05;;;;;;;5.71;63.13;98804.63;4971355;28;20482;-70
2021/03/12 05:09:14;;;;;;;13.32;4.30;;;;;;;5.72;63.30;98813.31;4970197;28;20061;-70
2021/03/12 05:11:42;;;;;;;12.65;3.75;;;;;;;5.71;64.04;98804.63;4982305;28;20030;-69
2021/03/12 05:14:07;;;;;;;9.43;3.97;;;;;;;5.66;63.44;98818.78;4989031;28;20042;-70
2021/03/12 05:16:33;;;;;;;12.20;4.10;;;;;;;5.67;62.84;98820.50;4969898;28;20035;-70
2021/03/12 05:18:58;;;;;;;12.93;3.90;;;;;;;5.69;62.78;98827.38;4970055;28;20039;-69
2021/03/12 05:21:23;;;;;;;23.70;4.18;;;;;;;5.73;64.03;98828.06;4970243;28;20122;-70
2021/03/12 05:23:49;;;;;;;15.93;5.60;;;;;;;5.72;64.42;98829.84;4972604;28;20035;-70
2021/03/12 05:26:15;;;;;;;15.55;3.50;;;;;;;5.73;63.66;98825.44;4968244;28;20050;-69
2021/03/12 05:28:40;;;;;;;15.93;3.97;;;;;;;5.75;63.87;98829.69;4979617;28;20085;-69
2021/03/12 05:31:06;;;;;;;16.98;4.20;;;;;;;5.72;64.47;98832.44;4972951;28;20038;-71
2021/03/12 05:33:31;;;;;;;14.50;5.30;;;;;;;5.72;63.84;98834.22;4968654;28;20121;-71
2021/03/12 05:35:56;;;;;;;7.18;3.15;;;;;;;5.75;64.04;98829.69;4971688;28;20038;-70
2021/03/12 05:38:22;;;;;;;17.13;5.28;;;;;;;5.68;63.91;98828.25;4973920;28;20050;-70
2021/03/12 05:40:47;;;;;;;16.13;4.25;;;;;;;5.72;64.30;98834.22;4973686;28;20038;-70
2021/03/12 05:43:13;;;;;;;24.08;6.00;;;;;;;5.74;63.91;98838.47;4973406;28;20042;-69
2021/03/12 05:45:38;;;;;;;10.77;3.72;;;;;;;5.75;63.64;98834.91;4973307;28;20586;-71
2021/03/12 05:48:05;;;;;;;16.13;4.38;;;;;;;5.70;64.09;98831.66;4955830;28;20031;-71
2021/03/12 05:50:31;;;;;;;13.30;3.75;;;;;;;5.66;63.85;98827.50;4987846;28;20035;-71
2021/03/12 05:52:57;;;;;;;22.77;3.40;;;;;;;5.69;63.69;98832.59;4992617;28;20041;-71
2021/03/12 05:55:26;;;;;;;15.43;4.22;;;;;;;5.70;64.41;98838.66;4977143;28;20030;-71
2021/03/12 05:57:51;;;;;;;17.88;6.28;;;;;;;5.68;64.47;98841.34;4991532;28;20486;-70
2021/03/12 06:00:18;;;;;;;12.85;4.32;;;;;;;5.69;63.67;98835.22;4992363;28;20061;-72
2021/03/12 06:02:44;;;;;;;11.35;3.15;;;;;;;5.73;63.74;98841.13;4993011;28;20323;-70
2021/03/12 06:05:10;;;;;;;12.15;2.95;;;;;;;5.76;63.75;98836.63;4975360;28;20990;-70
2021/03/12 06:07:37;;;;;;;11.25;4.15;;;;;;;5.76;64.58;98831.41;4989741;28;20030;-70
2021/03/12 06:10:05;;;;;;;8.57;4.05;;;;;;;5.71;64.62;98827.28;4975435;28;20039;-70
2021/03/12 06:12:31;;;;;;;12.25;3.47;;;;;;;5.68;64.50;98824.81;4993552;28;20434;-70
2021/03/12 06:15:00;;;;;;;17.60;5.50;;;;;;;5.68;64.77;98833.50;4991179;28;20038;-71
2021/03/12 06:17:32;;;;;;;17.60;4.43;;;;;;;5.68;65.07;98833.50;4992281;28;20046;-70
2021/03/12 06:19:59;;;;;;;15.80;4.45;;;;;;;5.69;65.52;98850.91;4991569;28;20710;-69
2021/03/12 06:22:25;;;;;;;11.30;3.35;;;;;;;5.73;65.32;98838.53;4990131;28;20034;-70
2021/03/12 06:24:50;;;;;;;10.73;3.70;;;;;;;5.73;65.20;98841.13;4985543;28;20034;-69
2021/03/12 06:27:29;;;;;;;21.13;4.13;;;;;;;5.76;64.66;98834.03;4992014;28;20045;-69
2021/03/12 06:30:00;;;;;;;18.80;4.00;;;;;;;5.73;65.29;98839.38;4975016;28;20038;-71
2021/03/12 06:32:43;;;;;;;19.02;4.25;;;;;;;5.76;65.60;98841.88;4992482;28;20042;-70
2021/03/12 06:35:10;;;;;;;12.07;3.75;;;;;;;5.77;65.23;98847.94;4991708;28;20038;-70
2021/03/12 06:37:35;;;;;;;14.63;3.80;;;;;;;5.75;65.25;98845.38;4974779;28;20331;-70
2021/03/12 06:40:19;;;;;;;16.42;4.22;;;;;;;5.77;65.45;98840.94;4991813;28;20085;-70
2021/03/12 06:43:08;;;;;;;17.67;5.68;;;;;;;5.79;65.56;98839.09;4991775;28;20034;-70
2021/03/12 06:45:53;;;;;;;17.52;4.38;;;;;;;5.79;65.03;98844.34;4991598;28;20576;-70
2021/03/12 06:48:21;;;;;;;11.70;3.47;;;;;;;5.79;65.20;98852.19;4991808;28;20042;-70
2021/03/12 06:50:49;;;;;;;48.95;6.43;;;;;;;5.81;64.97;98847.75;4991645;28;20498;-70
2021/03/12 06:53:38;;;;;;;14.50;4.50;;;;;;;5.86;64.85;98847.53;4991631;28;20048;-70
2021/03/12 06:56:06;;;;;;;11.18;3.92;;;;;;;6.00;64.86;98860.00;4969487;28;20034;-70
2021/03/12 06:58:33;;;;;;;18.25;4.70;;;;;;;6.15;64.19;98850.59;4981460;28;20586;-70
2021/03/12 07:00:59;;;;;;;21.00;4.55;;;;;;;6.23;63.82;98858.97;4972663;28;20034;-69
2021/03/12 07:03:29;;;;;;;17.90;4.78;;;;;;;6.30;64.14;98851.66;4972588;28;20113;-68
2021/03/12 07:06:04;;;;;;;15.63;6.75;;;;;;;6.30;63.51;98860.38;4970609;28;20043;-68
2021/03/12 07:08:32;;;;;;;12.55;4.18;;;;;;;6.38;63.77;98857.41;4971486;28;20511;-71
2021/03/12 07:10:58;;;;;;;13.98;4.15;;;;;;;6.43;63.36;98869.34;4972341;28;20031;-70
2021/03/12 07:13:25;;;;;;;16.55;4.13;;;;;;;6.49;63.29;98856.88;4972077;28;20031;-71
2021/03/12 07:15:52;;;;;;;14.70;3.97;;;;;;;6.51;63.17;98861.13;4970642;28;20110;-71
2021/03/12 07:18:19;;;;;;;19.48;5.60;;;;;;;6.60;63.08;98858.06;4972113;28;20126;-69
2021/03/12 07:20:45;;;;;;;13.52;3.95;;;;;;;6.66;62.84;98859.53;4972124;28;20038;-70
2021/03/12 07:23:11;;;;;;;19.27;5.68;;;;;;;6.70;62.87;98858.47;4971994;28;20035;-71
2021/03/12 07:25:38;;;;;;;13.45;5.68;;;;;;;6.75;62.54;98866.13;4974102;28;20114;-71
2021/03/12 07:28:05;;;;;;;20.88;4.63;;;;;;;6.76;62.59;98873.03;4970663;28;20074;-71
2021/03/12 07:30:33;;;;;;;11.70;5.25;;;;;;;6.84;62.32;98868.28;4971914;28;20035;-71
2021/03/12 07:32:59;;;;;;;20.05;5.30;;;;;;;6.94;62.28;98858.19;4971872;28;20097;-71
2021/03/12 07:35:26;;;;;;;15.25;4.00;;;;;;;7.05;62.10;98869.00;4972554;28;20042;-71
2021/03/12 07:37:53;;;;;;;15.23;5.10;;;;;;;7.14;62.00;98865.94;4953837;28;20479;-70
2021/03/12 07:40:19;;;;;;;17.00;4.57;;;;;;;7.09;61.54;98867.94;4971818;28;20043;-70
2021/03/12 07:42:46;;;;;;;21.52;4.40;;;;;;;7.12;61.51;98875.66;4971583;28;20081;-69
2021/03/12 07:45:13;;;;;;;21.45;4.68;;;;;;;7.09;61.63;98868.78;4970205;28;20061;-69
2021/03/12 07:47:39;;;;;;;21.75;5.22;;;;;;;7.15;62.12;98878.09;4953082;28;20169;-68
2021/03/12 07:50:24;;;;;;;17.70;5.20;;;;;;;7.04;62.02;98876.03;4971102;28;20117;-69
2021/03/12 07:52:51;;;;;;;20.10;5.32;;;;;;;6.93;62.56;98883.56;4971310;28;20069;-68
2021/03/12 07:55:35;;;;;;;9.52;3.90;;;;;;;6.86;62.76;98884.78;4970845;28;20046;-69
2021/03/12 07:58:01;;;;;;;20.27;4.78;;;;;;;6.81;63.55;98881.53;4975198;28;20049;-70
2021/03/12 08:00:27;;;;;;;16.48;5.47;;;;;;;6.66;63.54;98886.56;4980459;28;20045;-70
2021/03/12 08:02:56;;;;;;;17.10;5.10;;;;;;;6.63;63.88;98888.50;4981527;28;20042;-69
2021/03/12 08:05:40;;;;;;;19.05;5.13;;;;;;;6.55;63.83;98894.13;4981995;28;20039;-70
2021/03/12 08:08:32;;;;;;;22.67;4.55;;;;;;;6.58;63.66;98890.50;4969918;28;20423;-70
2021/03/12 08:11:16;;;;;;;24.23;6.85;;;;;;;6.67;64.17;98895.31;4964854;28;20049;-72
2021/03/12 08:13:41;;;;;;;20.33;6.15;;;;;;;6.64;63.82;98901.50;4986840;28;20041;-70
2021/03/12 08:16:07;;;;;;;24.25;4.85;;;;;;;6.73;63.27;98908.09;4983712;28;20042;-71
2021/03/12 08:18:32;;;;;;;13.45;5.40;;;;;;;6.79;62.72;98894.72;4981816;28;20066;-71
2021/03/12 08:20:58;;;;;;;16.63;5.95;;;;;;;7.03;63.04;98894.44;4947656;28;20084;-70
2021/03/12 08:23:33;;;;;;;17.45;4.47;;;;;;;7.13;61.68;98894.81;4980088;28;20038;-70
2021/03/12 08:25:59;;;;;;;;;;;;;;;7.48;60.93;98887.81;4964736;28;20062;-71
2021/03/12 08:28:27;;;;;;;17.93;5.90;;;;;;;7.69;59.24;98880.63;4986366;28;19964;-71
2021/03/12 08:30:54;;;;;;;23.83;5.57;;;;;;;7.92;58.39;98892.53;4990166;28;20262;-71
2021/03/12 08:33:28;;;;;;;24.40;4.90;;;;;;;8.23;57.08;98883.03;4984617;28;20061;-71
2021/03/12 08:35:56;;;;;;;15.13;4.13;;;;;;;8.81;56.35;98880.69;4984371;28;20088;-69
2021/03/12 08:38:21;;;;;;;19.95;6.68;;;;;;;9.44;53.80;98879.66;4977531;28;20038;-70
2021/03/12 08:41:10;;;;;;;18.10;4.80;;;;;;;10.07;51.75;98875.88;4980796;28;20038;-71
2021/03/12 08:43:42;;;;;;;12.75;4.30;;;;;;;10.44;50.99;98872.78;4988768;28;20042;-70
2021/03/12 08:46:11;;;;;;;20.45;6.03;;;;;;;10.20;50.46;98870.69;4987411;28;20022;-71
2021/03/12 08:48:37;;;;;;;17.35;4.75;;;;;;;10.43;50.32;98871.91;4988908;28;20038;-71
2021/03/12 08:51:06;;;;;;;23.92;4.63;;;;;;;10.43;49.64;98869.25;4956205;28;20030;-71
2021/03/12 08:53:35;;;;;;;15.23;5.03;;;;;;;10.61;49.45;98872.53;4971667;28;20401;-70
2021/03/12 08:56:02;;;;;;;12.25;4.57;;;;;;;10.49;49.51;98871.53;4972529;28;20061;-71
2021/03/12 08:58:30;;;;;;;17.00;4.80;;;;;;;10.48;49.41;98868.97;4989783;28;20121;-72
2021/03/12 09:00:58;;;;;;;11.82;5.38;;;;;;;10.27;50.06;98873.78;4989470;28;20038;-70
2021/03/12 09:03:30;;;;;;;12.52;4.75;;;;;;;10.56;49.21;98863.22;4988837;28;20109;-71
2021/03/12 09:06:12;;;;;;;16.60;4.63;;;;;;;10.84;47.98;98863.13;4989047;28;20042;-71
2021/03/12 09:08:40;;;;;;;11.32;4.22;;;;;;;10.87;47.98;98868.19;4988167;28;20038;-72
2021/03/12 09:11:08;;;;;;;19.55;4.72;;;;;;;10.74;48.26;98867.31;4970614;28;20038;-71
2021/03/12 09:13:37;;;;;;;20.55;4.65;;;;;;;10.41;49.13;98858.00;4957150;28;20047;-71
2021/03/12 09:16:04;;;;;;;15.63;4.95;;;;;;;10.70;48.81;98853.47;4958165;28;20076;-72
2021/03/12 09:18:30;;;;;;;9.70;4.20;;;;;;;11.03;47.78;98851.41;4976878;28;20050;-72
2021/03/12 09:21:07;;;;;;;16.33;5.28;;;;;;;11.33;46.63;98848.50;4973524;28;20045;-72
2021/03/12 09:23:49;;;;;;;13.02;4.38;;;;;;;11.76;45.12;98845.53;4973239;28;20458;-72
2021/03/12 09:26:23;;;;;;;15.27;6.38;;;;;;;11.77;44.65;98842.81;4989784;28;20046;-71
2021/03/12 09:28:51;;;;;;;9.82;3.70;;;;;;;12.22;43.91;98842.38;4990467;28;20113;-72
2021/03/12 09:31:18;;;;;;;18.50;5.03;;;;;;;12.41;43.47;98848.03;4989920;28;20121;-71
2021/03/12 09:33:54;;;;;;;10.65;4.07;;;;;;;12.38;43.87;98837.69;4982802;28;20039;-71
2021/03/12 09:36:30;;;;;;;13.35;4.30;;;;;;;11.11;44.88;98839.38;4971227;28;20035;-71
2021/03/12 09:39:12;;;;;;;13.85;4.93;;;;;;;10.48;47.30;98843.50;4970552;28;20053;-73
2021/03/12 09:41:51;;;;;;;16.02;4.95;;;;;;;11.10;46.86;98842.09;4970427;28;20038;-71
2021/03/12 09:44:17;;;;;;;10.40;4.20;;;;;;;11.91;44.12;98833.97;4969969;28;20071;-72
2021/03/12 09:46:44;;;;;;;15.50;4.60;;;;;;;12.09;43.45;98823.91;4970308;28;20101;-71
2021/03/12 09:49:19;;;;;;;17.13;5.00;;;;;;;12.41;42.82;98826.03;4969379;28;20042;-72
2021/03/12 09:51:46;;;;;;;17.23;4.57;;;;;;;11.59;44.86;98833.50;4953622;28;20118;-73
2021/03/12 09:54:14;;;;;;;15.57;5.82;;;;;;;11.04;45.28;98832.81;4969242;28;20051;-71
2021/03/12 09:56:44;;;;;;;11.43;4.55;;;;;;;11.52;44.28;98822.53;4970247;28;20046;-72
2021/03/12 09:59:10;;;;;;;16.05;4.25;;;;;;;11.03;45.66;98822.38;4974429;28;20150;-72
2021/03/12 10:01:40;;;;;;;11.38;4.32;;;;;;;10.94;46.29;98818.53;4989115;28;20129;-72
2021/03/12 10:04:25;;;;;;;9.85;3.95;;;;;;;11.08;45.01;98818.47;4987395;28;20062;-72
2021/03/12 10:07:05;;;;;;;9.32;3.40;;;;;;;10.95;46.03;98813.19;4989459;28;20508;-72
2021/03/12 10:09:31;;;;;;;11.70;3.72;;;;;;;10.95;46.55;98801.75;4970515;28;20046;-72
2021/03/12 10:11:58;;;;;;;16.50;4.63;;;;;;;11.49;44.53;98796.34;4970463;28;20065;-72
2021/03/12 10:14:39;;;;;;;16.70;4.10;;;;;;;11.29;44.87;98781.88;4970365;28;20058;-71
2021/03/12 10:17:07;;;;;;;13.50;4.05;;;;;;;12.28;42.83;98807.59;4968343;28;20038;-71
2021/03/12 10:19:46;;;;;;;12.35;4.40;;;;;;;11.92;43.04;98795.19;4976551;28;20038;-74
2021/03/12 10:22:16;;;;;;;14.07;4.25;;;;;;;11.61;43.23;98800.78;4977360;28;20125;-70
2021/03/12 10:24:44;;;;;;;10.90;4.18;;;;;;;11.74;42.96;98798.16;4988695;28;20045;-70
2021/03/12 10:27:10;;;;;;;19.92;5.07;;;;;;;10.85;44.55;98793.63;4971504;28;20050;-70
2021/03/12 10:29:37;;;;;;;18.73;4.82;;;;;;;11.57;43.92;98794.03;4971893;28;20042;-70
2021/03/12 10:32:08;;;;;;;12.43;4.50;;;;;;;12.12;42.84;98799.06;4988870;28;20046;-71
2021/03/12 10:34:47;;;;;;;14.32;4.85;;;;;;;13.42;40.32;98791.22;4972073;28;20069;-70
2021/03/12 10:37:18;;;;;;;9.05;4.05;;;;;;;13.41;38.70;98779.78;4964347;28;20053;-69
2021/03/12 10:39:52;;;;;;;13.60;5.35;;;;;;;12.36;41.17;98785.88;4985969;28;20150;-73
2021/03/12 10:42:26;;;;;;;12.05;4.65;;;;;;;12.94;39.66;98775.44;4969916;28;20122;-71
2021/03/12 10:44:55;;;;;;;10.82;3.78;;;;;;;12.86;39.59;98776.00;4967948;28;20069;-72
2021/03/12 10:47:21;;;;;;;11.52;4.15;;;;;;;12.57;40.22;98762.31;4959185;28;20577;-72
2021/03/12 10:49:47;;;;;;;10.55;4.07;;;;;;;12.72;40.35;98760.31;4967322;28;20047;-73
2021/03/12 10:52:29;;;;;;;26.08;3.75;;;;;;;12.19;41.67;98761.50;4951688;28;20066;-69
2021/03/12 10:54:56;;;;;;;11.32;3.83;;;;;;;12.05;42.22;98759.00;4969486;28;20129;-73
2021/03/12 10:57:39;;;;;;;19.83;4.63;;;;;;;11.98;41.90;98757.75;4969372;28;20114;-70
2021/03/12 11:00:08;;;;;;;14.98;3.53;;;;;;;11.57;42.78;98743.88;4967940;28;20410;-70
2021/03/12 11:02:35;;;;;;;128.95;15.15;;;;;;;11.35;43.59;98747.16;4972074;28;20122;-70
2021/03/12 11:05:01;;;;;;;9.52;4.13;;;;;;;11.09;43.45;98721.72;4989633;28;20489;-70
2021/03/12 11:07:26;;;;;;;11.25;4.30;;;;;;;11.03;44.05;98738.81;4989390;28;20058;-75
2021/03/12 11:09:51;;;;;;;11.90;3.83;;;;;;;10.78;44.42;98730.84;4986204;28;20042;-69
2021/03/12 11:12:17;;;;;;;10.80;3.58;;;;;;;10.66;44.77;98722.84;4987031;28;20122;-71
2021/03/12 11:14:44;;;;;;;9.93;3.45;;;;;;;10.72;45.16;98718.94;4988294;28;20124;-71
2021/03/12 11:17:09;;;;;;;11.23;4.05;;;;;;;10.83;44.72;98728.75;4987647;28;20116;-71
2021/03/12 11:19:34;;;;;;;16.58;4.32;;;;;;;10.72;44.45;98713.66;4988276;28;20493;-71
2021/03/12 11:22:01;;;;;;;22.13;4.55;;;;;;;10.37;45.30;98737.09;4988509;28;20629;-73
2021/03/12 11:24:26;;;;;;;11.98;3.53;;;;;;;10.21;46.09;98729.28;4981554;28;20771;-70
2021/03/12 11:26:51;;;;;;;10.60;3.22;;;;;;;10.38;45.44;98717.69;4967673;28;20125;-70
2021/03/12 11:29:17;;;;;;;12.10;4.30;;;;;;;10.53;44.78;98720.19;4968549;28;20130;-70
2021/03/12 11:31:42;;;;;;;8.95;3.67;;;;;;;10.39;44.80;98709.69;4973056;28;20057;-72
2021/03/12 11:34:08;;;;;;;10.57;4.03;;;;;;;10.38;45.60;98692.19;4982177;28;20061;-72
2021/03/12 11:36:34;;;;;;;12.27;4.65;;;;;;;10.31;45.85;98694.41;4968551;28;20050;-72